Data for 10/21/2008

Time Sea-Level Adjusted Pressure Absolute Pressure Temperature Relative Humidity Dew Point   
(mb) (inHg) (mb) (inHg) (C) (F) (%) (C) (F)
00:05 1015 29.97 844 24.92 5 41 68 -0.5 31.1
00:10 1015 29.97 844 24.92 4.7 40.4 70 -0.3 31.4
00:15 1015 29.97 844 24.92 4.3 39.8 71 -0.5 31.2
00:20 1016 30 845 24.95 4.2 39.6 71 -0.5 31
00:25 1016 30 845 24.95 4.2 39.5 71 -0.5 31
00:30 1017 30.03 846 24.98 4.3 39.7 71 -0.6 31
00:35 1017 30.03 846 24.98 4.4 39.9 71 -0.5 31.1
00:40 1017 30.03 847 25.01 4.5 40 70 -0.4 31.2
00:45 1018 30.06 847 25.01 4.4 39.8 71 -0.5 31.2
00:50 1018 30.06 847 25.01 4.3 39.7 72 -0.3 31.5
00:55 1018 30.06 847 25.01 4.2 39.6 76 0.3 32.6
01:00 1018 30.06 847 25.01 3.6 38.5 79 0.4 32.7
01:05 1018 30.06 847 25.01 3 37.4 83 0.5 32.8
01:10 1018 30.06 848 25.04 2.5 36.6 86 0.5 32.9
01:15 1018 30.06 848 25.04 2.1 35.7 89 0.4 32.7
01:20 1018 30.06 848 25.04 1.9 35.3 90 0.4 32.8
01:25 1019 30.09 848 25.04 1.7 35 92 0.5 32.8
01:30 1019 30.09 848 25.04 1.5 34.8 92 0.3 32.6
01:35 1019 30.09 848 25.04 1.4 34.6 92 0.3 32.5
01:40 1019 30.09 848 25.04 1.4 34.5 92 0.3 32.5
01:45 1019 30.09 848 25.04 1.1 33.9 94 0.2 32.3
01:50 1019 30.09 848 25.04 1 33.9 94 0.1 32.2
01:55 1019 30.09 848 25.04 1 33.8 94 0.1 32.2
02:00 1019 30.09 848 25.04 0.9 33.6 95 0.2 32.3
02:05 1019 30.09 848 25.04 0.9 33.5 95 0.1 32.2
02:10 1019 30.09 848 25.04 0.9 33.6 94 0.1 32.2
02:15 1019 30.09 848 25.04 0.9 33.6 95 0.1 32.3
02:20 1019 30.09 848 25.04 0.9 33.6 95 0.1 32.2
02:25 1019 30.09 848 25.04 0.8 33.5 95 0.1 32.3
02:30 1019 30.09 848 25.04 0.9 33.6 94 0.1 32.2
02:35 1019 30.09 848 25.04 0.8 33.4 95 0.1 32.2
02:40 1019 30.09 848 25.04 0.9 33.7 94 0.1 32.2
02:45 1019 30.09 848 25.04 0.7 33.3 96 0.2 32.3
02:50 1019 30.09 848 25.04 0.5 32.9 97 0 32.1
02:55 1019 30.09 848 25.04 0.4 32.7 97 0 32.1
03:00 1019 30.09 848 25.04 0.6 33.1 97 0.2 32.3
03:05 1019 30.09 848 25.04 0.9 33.6 95 0.2 32.3
03:10 1019 30.09 848 25.04 0.7 33.3 96 0.1 32.2
03:15 1019 30.09 848 25.04 0.7 33.2 96 0.1 32.2
03:20 1019 30.09 848 25.04 0.8 33.4 96 0.2 32.4
03:25 1019 30.09 848 25.04 1 33.8 95 0.3 32.5
03:30 1019 30.09 848 25.04 1.3 34.3 93 0.3 32.6
03:35 1019 30.09 848 25.04 1.3 34.3 93 0.3 32.5
03:40 1019 30.09 848 25.04 1.2 34.1 94 0.2 32.4
03:45 1019 30.09 848 25.04 1.2 34.1 94 0.3 32.5
03:50 1019 30.09 848 25.04 1 33.8 95 0.2 32.4
03:55 1019 30.09 848 25.04 0.9 33.6 95 0.1 32.3
04:00 1019 30.09 848 25.04 1.1 34 93 0.1 32.2
04:05 1019 30.09 848 25.04 1.4 34.5 92 0.2 32.3
04:10 1019 30.09 848 25.04 1.5 34.7 90 0.1 32.2
04:15 1019 30.09 848 25.04 1.6 34.8 91 0.3 32.5
04:20 1019 30.09 848 25.04 1.5 34.6 92 0.3 32.5
04:25 1019 30.09 848 25.04 1.4 34.4 90 -0.2 31.7
04:30 1019 30.09 848 25.04 1.4 34.6 90 -0 31.9
04:35 1019 30.09 848 25.04 1.4 34.5 91 0 32
04:40 1019 30.09 848 25.04 1.3 34.4 92 0.2 32.4
04:45 1019 30.09 848 25.04 1.4 34.6 91 0.2 32.3
04:50 1019 30.09 848 25.04 1.4 34.5 92 0.2 32.4
04:55 1019 30.09 848 25.04 1.3 34.3 92 0.1 32.2
05:00 1019 30.09 848 25.04 1.2 34.2 92 0.1 32.1
05:05 1019 30.09 848 25.04 1.2 34.2 92 0 32
05:10 1019 30.09 848 25.04 1.2 34.2 91 -0.1 31.8
05:15 1019 30.09 848 25.04 1.3 34.4 89 -0.3 31.5
05:20 1019 30.09 848 25.04 1.4 34.6 90 -0 32
05:25 1019 30.09 848 25.04 1.3 34.4 92 0.2 32.3
05:30 1019 30.09 848 25.04 1.1 34 93 0 32
05:35 1019 30.09 848 25.04 1.1 34 93 0.1 32.2
05:40 1019 30.09 848 25.04 1.4 34.5 91 0 32
05:45 1019 30.09 848 25.04 1.6 34.9 89 0 32
05:50 1019 30.09 848 25.04 1.6 34.9 89 0 32
05:55 1019 30.09 848 25.04 1.4 34.6 89 -0.2 31.6
06:00 1019 30.09 848 25.04 1.4 34.6 87 -0.4 31.2
06:05 1019 30.09 848 25.04 1.6 34.9 86 -0.5 31.1
06:10 1019 30.09 848 25.04 1.8 35.3 85 -0.5 31.1
06:15 1019 30.09 849 25.07 1.9 35.5 87 -0.1 31.9
06:20 1019 30.09 849 25.07 2 35.5 85 -0.3 31.4
06:25 1019 30.09 849 25.07 2.2 35.9 86 0.1 32.2
06:30 1019 30.09 849 25.07 2.4 36.2 85 0.2 32.3
06:35 1019 30.09 849 25.07 2.5 36.6 85 0.2 32.4
06:40 1019 30.09 849 25.07 2.6 36.6 82 -0.1 31.7
06:45 1019 30.09 849 25.07 2.4 36.3 84 0 32
06:50 1019 30.09 848 25.04 1.9 35.4 87 -0 31.9
06:55 1019 30.09 848 25.04 1.6 34.8 88 -0.2 31.7
07:00 1019 30.09 848 25.04 1.2 34.1 93 0.1 32.2
07:05 1019 30.09 849 25.07 1 33.8 92 -0.1 31.7
07:10 1019 30.09 849 25.07 1 33.8 92 -0.2 31.7
07:15 1019 30.09 849 25.07 1.1 33.9 91 -0.3 31.5
07:20 1019 30.09 849 25.07 1.2 34.2 90 -0.2 31.7
07:25 1020 30.12 849 25.07 1.2 34.2 90 -0.2 31.7
07:30 1020 30.12 849 25.07 1.2 34.1 91 -0.2 31.7
07:35 1019 30.09 849 25.07 1.2 34.1 91 -0.1 31.8
07:40 1019 30.09 849 25.07 1.2 34.2 92 0.1 32.1
07:45 1019 30.09 849 25.07 1.1 34.1 90 -0.4 31.4
07:50 1020 30.12 849 25.07 1.3 34.3 89 -0.3 31.5
07:55 1020 30.12 849 25.07 1.6 34.9 88 -0.2 31.6
08:00 1020 30.12 849 25.07 1.9 35.3 88 0.1 32.1
08:05 1020 30.12 850 25.1 1.8 35.2 88 -0 32
08:10 1021 30.15 850 25.1 1.4 34.6 91 0.1 32.2
08:15 1021 30.15 850 25.1 1.1 33.9 93 0.1 32.2
08:20 1021 30.15 850 25.1 0.8 33.4 94 -0 32
08:25 1021 30.15 850 25.1 0.5 33 95 -0.1 31.7
08:30 1021 30.15 850 25.1 0.5 32.9 95 -0.2 31.6
08:35 1021 30.15 850 25.1 0.5 32.9 95 -0.2 31.6
08:40 1021 30.15 850 25.1 0.5 32.9 94 -0.4 31.3
08:45 1021 30.15 850 25.1 0.5 32.9 93 -0.5 31
08:50 1021 30.15 851 25.13 0.5 32.9 94 -0.4 31.3
08:55 1022 30.18 851 25.13 0.4 32.6 94 -0.5 31.2
09:00 1022 30.18 851 25.13 0.4 32.7 94 -0.5 31.1
09:05 1022 30.18 851 25.13 0.4 32.8 92 -0.7 30.8
09:10 1022 30.18 851 25.13 0.6 33.1 92 -0.6 31
09:15 1022 30.18 851 25.13 0.6 33 89 -1 30.2
09:20 1022 30.18 851 25.13 0.6 33.1 89 -1 30.2
09:25 1022 30.18 851 25.13 0.7 33.3 86 -1.3 29.7
09:30 1022 30.18 851 25.13 1 33.7 85 -1.2 29.8
09:35 1022 30.18 851 25.13 1.2 34.2 84 -1.3 29.7
09:40 1022 30.18 851 25.13 1.5 34.7 82 -1.2 29.8
09:45 1022 30.18 851 25.13 1.8 35.2 78 -1.6 29.1
09:50 1022 30.18 851 25.13 1.9 35.5 78 -1.4 29.4
09:55 1022 30.18 852 25.16 2.1 35.7 79 -1.3 29.7
10:00 1022 30.18 852 25.16 2.3 36.2 75 -1.7 29
10:05 1022 30.18 851 25.13 2.3 36.1 73 -2.1 28.3
10:10 1022 30.18 852 25.16 2.9 37.2 72 -1.7 29
10:15 1023 30.21 852 25.16 2.9 37.2 72 -1.7 28.9
10:20 1023 30.21 852 25.16 2.8 37 73 -1.6 29
10:25 1023 30.21 852 25.16 2.8 37.1 72 -1.7 28.9
10:30 1023 30.21 852 25.16 2.9 37.2 71 -1.8 28.7
10:35 1023 30.21 852 25.16 2.9 37.2 71 -1.9 28.6
10:40 1023 30.21 852 25.16 2.6 36.7 73 -1.7 28.9
10:45 1023 30.21 852 25.16 2.8 37.1 70 -2 28.3
10:50 1023 30.21 852 25.16 3 37.4 70 -2 28.4
10:55 1023 30.21 852 25.16 3 37.5 71 -1.7 28.9
11:00 1023 30.21 852 25.16 3.2 37.8 71 -1.6 29.1
11:05 1023 30.21 853 25.19 3.5 38.2 70 -1.4 29.4
11:10 1023 30.21 853 25.19 3.6 38.5 65 -2.3 27.9
11:15 1024 30.24 853 25.19 3.7 38.6 65 -2.3 27.9
11:20 1024 30.24 853 25.19 3.6 38.5 66 -2.2 28
11:25 1024 30.24 853 25.19 3.6 38.4 67 -2 28.3
11:30 1024 30.24 853 25.19 3.5 38.3 64 -2.6 27.3
11:35 1024 30.24 853 25.19 3.1 37.6 66 -2.5 27.4
11:40 1024 30.24 853 25.19 2.9 37.2 67 -2.7 27.2
11:45 1024 30.24 853 25.19 2.6 36.8 73 -1.7 29
11:50 1024 30.24 853 25.19 1.7 35 78 -1.8 28.7
11:55 1024 30.24 854 25.22 1.3 34.3 80 -1.9 28.7
12:00 1024 30.24 854 25.22 1.5 34.6 76 -2.4 27.7
12:05 1024 30.24 854 25.22 1.5 34.7 79 -1.7 28.9
12:10 1025 30.27 854 25.22 1.4 34.6 79 -1.8 28.7
12:15 1025 30.27 854 25.22 1.4 34.5 81 -1.6 29.1
12:20 1025 30.27 854 25.22 1.4 34.6 79 -1.8 28.8
12:25 1025 30.27 854 25.22 1.4 34.5 80 -1.8 28.8
12:30 1025 30.27 854 25.22 1.3 34.3 81 -1.7 29
12:35 1025 30.27 854 25.22 1.5 34.7 79 -1.7 28.9
12:40 1025 30.27 854 25.22 1.5 34.7 79 -1.7 28.9
12:45 1025 30.27 854 25.22 1.6 34.9 80 -1.5 29.2
12:50 1025 30.27 854 25.22 1.5 34.7 81 -1.5 29.3
12:55 1025 30.27 854 25.22 1.4 34.6 80 -1.7 28.9
13:00 1025 30.27 854 25.22 1.4 34.5 81 -1.5 29.4
13:05 1025 30.27 854 25.22 1.4 34.5 81 -1.4 29.4
13:10 1025 30.27 854 25.22 1.6 34.8 80 -1.5 29.2
13:15 1025 30.27 854 25.22 1.7 35 79 -1.5 29.3
13:20 1025 30.27 854 25.22 1.8 35.2 84 -0.6 30.9
13:25 1025 30.27 855 25.25 1.3 34.3 89 -0.3 31.5
13:30 1025 30.27 855 25.25 1 33.8 91 -0.3 31.4
13:35 1025 30.27 855 25.25 0.9 33.5 91 -0.5 31.1
13:40 1026 30.3 855 25.25 0.7 33.3 91 -0.5 31
13:45 1026 30.3 855 25.25 0.8 33.5 91 -0.5 31.1
13:50 1026 30.3 855 25.25 1.1 34 90 -0.4 31.3
13:55 1026 30.3 855 25.25 1.4 34.5 87 -0.6 31
14:00 1025 30.27 855 25.25 1.5 34.8 87 -0.5 31.2
14:05 1025 30.27 855 25.25 1.7 35 85 -0.6 30.9
14:10 1025 30.27 855 25.25 1.5 34.8 86 -0.5 31
14:15 1026 30.3 855 25.25 1.8 35.3 84 -0.5 31.1
14:20 1026 30.3 855 25.25 2.1 35.8 83 -0.5 31.1
14:25 1026 30.3 855 25.25 1.7 35.1 87 -0.2 31.6
14:30 1026 30.3 855 25.25 1.6 34.9 85 -0.7 30.8
14:35 1026 30.3 855 25.25 1.5 34.7 88 -0.2 31.6
14:40 1026 30.3 855 25.25 1.7 35.1 85 -0.5 31.1
14:45 1026 30.3 855 25.25 1.7 35 86 -0.4 31.3
14:50 1026 30.3 855 25.25 1.9 35.4 82 -0.9 30.3
14:55 1026 30.3 855 25.25 2.2 35.9 84 -0.2 31.6
15:00 1026 30.3 855 25.25 2.5 36.5 82 -0.2 31.6
15:05 1026 30.3 855 25.25 2.4 36.4 80 -0.6 30.9
15:10 1026 30.3 855 25.25 2.4 36.3 83 -0.1 31.8
15:15 1026 30.3 855 25.25 2.1 35.7 84 -0.4 31.2
15:20 1026 30.3 855 25.25 2.3 36.1 81 -0.7 30.8
15:25 1026 30.3 855 25.25 2.9 37.2 75 -1.1 29.9
15:30 1026 30.3 855 25.25 3.4 38.1 75 -0.6 30.9
15:35 1026 30.3 855 25.25 3.5 38.3 68 -1.8 28.7
15:40 1026 30.3 855 25.25 3.6 38.4 68 -1.8 28.7
15:45 1026 30.3 855 25.25 3.4 38.2 66 -2.3 27.9
15:50 1026 30.3 855 25.25 3.3 38 64 -2.8 27
15:55 1026 30.3 855 25.25 3.2 37.8 68 -2.2 28.1
16:00 1026 30.3 855 25.25 3.2 37.7 72 -1.5 29.4
16:05 1026 30.3 855 25.25 3.1 37.7 71 -1.6 29.2
16:10 1026 30.3 856 25.28 3.1 37.7 70 -1.8 28.8
16:15 1026 30.3 856 25.28 3.2 37.8 67 -2.3 27.9
16:20 1027 30.33 856 25.28 3.3 37.9 67 -2.2 28
16:25 1027 30.33 856 25.28 3.5 38.3 67 -1.9 28.5
16:30 1027 30.33 856 25.28 3.4 38.1 66 -2.3 27.9
16:35 1027 30.33 856 25.28 3.8 38.9 52 -5.2 22.6
16:40 1027 30.33 856 25.28 4.1 39.5 51 -5.1 22.7
16:45 1027 30.33 856 25.28 4.2 39.5 50 -5.4 22.4
16:50 1027 30.33 856 25.28 4.2 39.5 51 -5.2 22.7
16:55 1027 30.33 856 25.28 4.2 39.5 49 -5.7 21.7
17:00 1027 30.33 856 25.28 4 39.3 49 -5.7 21.7
17:05 1027 30.33 856 25.28 3.9 39.1 48 -6 21.1
17:10 1027 30.33 856 25.28 3.8 38.9 49 -6 21.1
17:15 1027 30.33 856 25.28 3.7 38.7 48 -6.2 20.8
17:20 1027 30.33 856 25.28 3.8 38.8 50 -5.7 21.7
17:25 1027 30.33 857 25.31 3.8 38.8 47 -6.5 20.2
17:30 1027 30.33 857 25.31 3.7 38.7 50 -5.7 21.8
17:35 1028 30.36 857 25.31 3.6 38.5 49 -6 21.2
17:40 1028 30.36 857 25.31 3.6 38.4 49 -6.3 20.7
17:45 1028 30.36 857 25.31 3.5 38.3 50 -6 21.2
17:50 1028 30.36 857 25.31 3.4 38 51 -5.7 21.7
17:55 1028 30.36 857 25.31 3.2 37.7 55 -4.9 23.2
18:00 1028 30.36 857 25.31 2.8 37.1 66 -2.8 26.9
18:05 1028 30.36 857 25.31 2.3 36.2 66 -3.3 26
18:10 1028 30.36 857 25.31 2.2 35.9 62 -4.4 24.2
18:15 1028 30.36 857 25.31 2.5 36.4 61 -4.4 24.1
18:20 1028 30.36 857 25.31 2.5 36.6 60 -4.5 23.9
18:25 1028 30.36 857 25.31 2.6 36.6 56 -5.2 22.6
18:30 1028 30.36 858 25.34 2.7 36.9 58 -4.8 23.4
18:35 1029 30.39 858 25.34 2.7 36.9 58 -4.7 23.6
18:40 1029 30.39 858 25.34 2.7 36.8 59 -4.7 23.6
18:45 1029 30.39 858 25.34 2.6 36.7 55 -5.5 22.2
18:50 1029 30.39 858 25.34 2.6 36.6 52 -6.2 20.9
18:55 1029 30.39 858 25.34 2.6 36.7 52 -6.4 20.6
19:00 1029 30.39 858 25.34 2.6 36.8 53 -6 21.2
19:05 1029 30.39 858 25.34 2.6 36.6 54 -5.7 21.7
19:10 1029 30.39 858 25.34 2.4 36.4 56 -5.5 22.1
19:15 1029 30.39 858 25.34 2.3 36.2 56 -5.5 22.1
19:20 1029 30.39 858 25.34 2.3 36.1 56 -5.6 21.9
19:25 1029 30.39 859 25.37 2.3 36.2 55 -5.7 21.8
19:30 1029 30.39 859 25.37 2.4 36.2 58 -5 22.9
19:35 1030 30.42 859 25.37 2.2 36 60 -4.7 23.6
19:40 1030 30.42 859 25.37 2.1 35.8 62 -4.4 24.1
19:45 1030 30.42 859 25.37 2 35.6 63 -4.2 24.4
19:50 1030 30.42 859 25.37 1.9 35.4 65 -4 24.9
19:55 1030 30.42 859 25.37 1.8 35.2 66 -3.8 25.1
20:00 1030 30.42 859 25.37 1.8 35.2 67 -3.7 25.3
20:05 1030 30.42 859 25.37 1.6 35 69 -3.5 25.7
20:10 1030 30.42 859 25.37 1.5 34.8 68 -3.7 25.4
20:15 1030 30.42 859 25.37 1.5 34.8 64 -4.5 23.9
20:20 1030 30.42 859 25.37 1.6 34.8 60 -5.4 22.3
20:25 1030 30.42 860 25.4 1.6 34.9 58 -5.8 21.5
20:30 1030 30.42 860 25.4 1.7 35.1 57 -6 21.2
20:35 1031 30.45 860 25.4 1.6 34.9 57 -5.9 21.3
20:40 1031 30.45 860 25.4 1.5 34.7 60 -5.5 22.1
20:45 1031 30.45 860 25.4 1.2 34.2 63 -5 23.1
20:50 1031 30.45 860 25.4 0.8 33.4 66 -4.9 23.3
20:55 1031 30.45 860 25.4 0.5 32.9 68 -4.8 23.3
21:00 1031 30.45 860 25.4 0.4 32.7 70 -4.5 23.9
21:05 1031 30.45 860 25.4 0.3 32.5 68 -4.9 23.3
21:10 1031 30.45 860 25.4 0.6 33.1 67 -4.8 23.4
21:15 1031 30.45 860 25.4 0.8 33.4 67 -4.7 23.5
21:20 1031 30.45 860 25.4 0.7 33.3 67 -4.6 23.6
21:25 1031 30.45 860 25.4 0.6 33.1 68 -4.6 23.7
21:30 1031 30.45 861 25.43 0.6 33.2 68 -4.6 23.8
21:35 1031 30.45 861 25.43 0.7 33.3 68 -4.5 23.9
21:40 1031 30.45 861 25.43 0.8 33.4 68 -4.5 24
21:45 1032 30.47 861 25.43 0.6 33.2 68 -4.6 23.7
21:50 1032 30.47 861 25.43 0.7 33.3 68 -4.4 24
21:55 1032 30.47 861 25.43 0.7 33.3 68 -4.6 23.7
22:00 1032 30.47 861 25.43 0.8 33.5 67 -4.6 23.7
22:05 1032 30.47 861 25.43 0.8 33.4 68 -4.5 23.8
22:10 1032 30.47 861 25.43 0.8 33.4 66 -4.8 23.3
22:15 1032 30.47 861 25.43 0.9 33.6 65 -5 23.1
22:20 1032 30.47 861 25.43 1 33.7 63 -5.2 22.6
22:25 1032 30.47 861 25.43 1 33.8 64 -5 23
22:30 1032 30.47 861 25.43 0.9 33.7 64 -5 22.9
22:35 1032 30.47 861 25.43 0.9 33.6 64 -5.2 22.6
22:40 1032 30.47 861 25.43 0.8 33.5 64 -5.2 22.6
22:45 1032 30.47 861 25.43 0.8 33.4 64 -5.2 22.6
22:50 1032 30.47 861 25.43 0.7 33.3 65 -5.1 22.8
22:55 1032 30.47 862 25.45 0.7 33.2 64 -5.4 22.3
23:00 1032 30.47 862 25.45 0.7 33.2 64 -5.3 22.5
23:05 1032 30.47 862 25.45 0.6 33.2 64 -5.3 22.4
23:10 1032 30.47 862 25.45 0.7 33.2 64 -5.3 22.4
23:15 1032 30.47 862 25.45 0.7 33.2 64 -5.4 22.2
23:20 1033 30.5 862 25.45 0.7 33.2 64 -5.4 22.3
23:25 1033 30.5 862 25.45 0.7 33.3 63 -5.6 22
23:30 1033 30.5 862 25.45 0.6 33.1 62 -5.8 21.6
23:35 1033 30.5 862 25.45 0.6 33.1 62 -5.8 21.6
23:40 1033 30.5 862 25.45 0.5 33 64 -5.6 22
23:45 1033 30.5 862 25.45 0.5 32.9 65 -5.4 22.2
23:50 1033 30.5 862 25.45 0.5 32.9 64 -5.6 21.8
23:55 1033 30.5 862 25.45 0.5 32.9 63 -5.7 21.8
24:00 1033 30.5 862 25.45 0.4 32.7 63 -5.8 21.5